sensor_id;sensor_type;location;lat;lon;timestamp;P1;durP1;ratioP1;P2;durP2;ratioP2
11893;SDS011;6006;49.696;8.662;2024-02-15T00:00:39;1.20;;;1.10;;
11893;SDS011;6006;49.696;8.662;2024-02-15T00:03:08;1.53;;;0.97;;
11893;SDS011;6006;49.696;8.662;2024-02-15T00:05:38;2.27;;;2.07;;
11893;SDS011;6006;49.696;8.662;2024-02-15T00:08:05;1.63;;;1.53;;
11893;SDS011;6006;49.696;8.662;2024-02-15T00:10:36;1.53;;;1.43;;
11893;SDS011;6006;49.696;8.662;2024-02-15T00:13:03;2.67;;;1.93;;
11893;SDS011;6006;49.696;8.662;2024-02-15T00:15:31;2.47;;;1.30;;
11893;SDS011;6006;49.696;8.662;2024-02-15T00:17:58;2.13;;;1.63;;
11893;SDS011;6006;49.696;8.662;2024-02-15T00:20:25;1.47;;;1.37;;
11893;SDS011;6006;49.696;8.662;2024-02-15T00:22:52;2.13;;;1.30;;
11893;SDS011;6006;49.696;8.662;2024-02-15T00:25:21;1.57;;;1.40;;
11893;SDS011;6006;49.696;8.662;2024-02-15T00:27:49;2.10;;;1.13;;
11893;SDS011;6006;49.696;8.662;2024-02-15T00:30:16;1.40;;;1.30;;
11893;SDS011;6006;49.696;8.662;2024-02-15T00:32:43;1.43;;;1.33;;
11893;SDS011;6006;49.696;8.662;2024-02-15T00:35:11;3.10;;;1.17;;
11893;SDS011;6006;49.696;8.662;2024-02-15T00:37:38;1.87;;;1.63;;
11893;SDS011;6006;49.696;8.662;2024-02-15T00:40:06;3.10;;;1.50;;
11893;SDS011;6006;49.696;8.662;2024-02-15T00:42:34;1.20;;;1.10;;
11893;SDS011;6006;49.696;8.662;2024-02-15T00:45:02;1.20;;;1.10;;
11893;SDS011;6006;49.696;8.662;2024-02-15T00:47:30;1.23;;;1.13;;
11893;SDS011;6006;49.696;8.662;2024-02-15T00:49:58;1.57;;;1.47;;
11893;SDS011;6006;49.696;8.662;2024-02-15T00:52:24;1.17;;;1.10;;
11893;SDS011;6006;49.696;8.662;2024-02-15T00:54:51;1.40;;;1.30;;
11893;SDS011;6006;49.696;8.662;2024-02-15T00:57:18;2.10;;;1.73;;
11893;SDS011;6006;49.696;8.662;2024-02-15T00:59:45;1.97;;;1.57;;
11893;SDS011;6006;49.696;8.662;2024-02-15T01:02:14;1.70;;;1.50;;
11893;SDS011;6006;49.696;8.662;2024-02-15T01:04:41;1.60;;;1.50;;
11893;SDS011;6006;49.696;8.662;2024-02-15T01:07:10;1.37;;;1.27;;
11893;SDS011;6006;49.696;8.662;2024-02-15T01:09:37;1.50;;;1.40;;
11893;SDS011;6006;49.696;8.662;2024-02-15T01:12:04;1.70;;;1.40;;
11893;SDS011;6006;49.696;8.662;2024-02-15T01:14:31;3.07;;;1.80;;
11893;SDS011;6006;49.696;8.662;2024-02-15T01:16:58;1.47;;;1.37;;
11893;SDS011;6006;49.696;8.662;2024-02-15T01:19:26;1.70;;;1.60;;
11893;SDS011;6006;49.696;8.662;2024-02-15T01:21:53;1.30;;;1.20;;
11893;SDS011;6006;49.696;8.662;2024-02-15T01:24:20;1.97;;;1.30;;
11893;SDS011;6006;49.696;8.662;2024-02-15T01:26:47;1.97;;;1.27;;
11893;SDS011;6006;49.696;8.662;2024-02-15T01:29:14;1.60;;;1.50;;
11893;SDS011;6006;49.696;8.662;2024-02-15T01:31:42;1.80;;;1.27;;
11893;SDS011;6006;49.696;8.662;2024-02-15T01:34:09;3.87;;;1.60;;
11893;SDS011;6006;49.696;8.662;2024-02-15T01:36:37;2.13;;;1.43;;
11893;SDS011;6006;49.696;8.662;2024-02-15T01:39:04;1.40;;;1.30;;
11893;SDS011;6006;49.696;8.662;2024-02-15T01:41:31;2.53;;;1.50;;
11893;SDS011;6006;49.696;8.662;2024-02-15T01:43:58;1.90;;;1.17;;
11893;SDS011;6006;49.696;8.662;2024-02-15T01:46:25;1.17;;;1.07;;
11893;SDS011;6006;49.696;8.662;2024-02-15T01:48:53;1.77;;;1.20;;
11893;SDS011;6006;49.696;8.662;2024-02-15T01:51:21;2.17;;;1.80;;
11893;SDS011;6006;49.696;8.662;2024-02-15T01:53:51;1.40;;;1.30;;
11893;SDS011;6006;49.696;8.662;2024-02-15T01:56:20;2.93;;;1.50;;
11893;SDS011;6006;49.696;8.662;2024-02-15T01:58:50;2.77;;;1.67;;
11893;SDS011;6006;49.696;8.662;2024-02-15T02:01:17;2.07;;;1.87;;
11893;SDS011;6006;49.696;8.662;2024-02-15T02:03:46;1.57;;;1.43;;
11893;SDS011;6006;49.696;8.662;2024-02-15T02:06:13;1.70;;;1.60;;
11893;SDS011;6006;49.696;8.662;2024-02-15T02:08:40;1.73;;;1.37;;
11893;SDS011;6006;49.696;8.662;2024-02-15T02:11:08;4.50;;;1.47;;
11893;SDS011;6006;49.696;8.662;2024-02-15T02:13:35;2.13;;;1.50;;
11893;SDS011;6006;49.696;8.662;2024-02-15T02:16:02;1.80;;;1.50;;
11893;SDS011;6006;49.696;8.662;2024-02-15T02:18:29;1.77;;;1.53;;
11893;SDS011;6006;49.696;8.662;2024-02-15T02:20:56;1.50;;;1.40;;
11893;SDS011;6006;49.696;8.662;2024-02-15T02:23:25;2.97;;;1.67;;
11893;SDS011;6006;49.696;8.662;2024-02-15T02:25:55;1.67;;;1.53;;
11893;SDS011;6006;49.696;8.662;2024-02-15T02:28:23;2.43;;;1.47;;
11893;SDS011;6006;49.696;8.662;2024-02-15T02:30:51;1.23;;;1.13;;
11893;SDS011;6006;49.696;8.662;2024-02-15T02:33:18;1.20;;;1.10;;
11893;SDS011;6006;49.696;8.662;2024-02-15T02:35:47;2.10;;;1.50;;
11893;SDS011;6006;49.696;8.662;2024-02-15T02:38:14;1.17;;;1.00;;
11893;SDS011;6006;49.696;8.662;2024-02-15T02:40:41;4.07;;;1.17;;
11893;SDS011;6006;49.696;8.662;2024-02-15T02:43:09;2.17;;;1.50;;
11893;SDS011;6006;49.696;8.662;2024-02-15T02:45:36;1.53;;;1.40;;
11893;SDS011;6006;49.696;8.662;2024-02-15T02:48:03;2.10;;;1.13;;
11893;SDS011;6006;49.696;8.662;2024-02-15T02:50:31;1.17;;;0.93;;
11893;SDS011;6006;49.696;8.662;2024-02-15T02:52:58;3.77;;;1.43;;
11893;SDS011;6006;49.696;8.662;2024-02-15T02:55:25;2.47;;;1.30;;
11893;SDS011;6006;49.696;8.662;2024-02-15T02:57:53;3.83;;;1.67;;
11893;SDS011;6006;49.696;8.662;2024-02-15T03:00:21;1.70;;;1.60;;
11893;SDS011;6006;49.696;8.662;2024-02-15T03:02:48;2.70;;;1.90;;
11893;SDS011;6006;49.696;8.662;2024-02-15T03:05:15;1.80;;;1.63;;
11893;SDS011;6006;49.696;8.662;2024-02-15T03:07:45;0.97;;;0.93;;
11893;SDS011;6006;49.696;8.662;2024-02-15T03:10:11;1.70;;;1.60;;
11893;SDS011;6006;49.696;8.662;2024-02-15T03:12:39;3.00;;;1.83;;
11893;SDS011;6006;49.696;8.662;2024-02-15T03:15:08;1.40;;;1.30;;
11893;SDS011;6006;49.696;8.662;2024-02-15T03:17:38;1.70;;;1.60;;
11893;SDS011;6006;49.696;8.662;2024-02-15T03:20:06;1.90;;;1.43;;
11893;SDS011;6006;49.696;8.662;2024-02-15T03:22:37;1.70;;;1.53;;
11893;SDS011;6006;49.696;8.662;2024-02-15T03:25:04;3.43;;;1.57;;
11893;SDS011;6006;49.696;8.662;2024-02-15T03:27:33;1.47;;;1.37;;
11893;SDS011;6006;49.696;8.662;2024-02-15T03:30:00;1.53;;;1.37;;
11893;SDS011;6006;49.696;8.662;2024-02-15T03:32:29;1.53;;;1.43;;
11893;SDS011;6006;49.696;8.662;2024-02-15T03:34:57;3.17;;;1.27;;
11893;SDS011;6006;49.696;8.662;2024-02-15T03:37:26;2.67;;;1.37;;
11893;SDS011;6006;49.696;8.662;2024-02-15T03:39:53;2.60;;;1.50;;
11893;SDS011;6006;49.696;8.662;2024-02-15T03:42:20;2.40;;;1.40;;
11893;SDS011;6006;49.696;8.662;2024-02-15T03:44:46;1.47;;;1.33;;
11893;SDS011;6006;49.696;8.662;2024-02-15T03:47:13;2.93;;;1.50;;
11893;SDS011;6006;49.696;8.662;2024-02-15T03:49:40;2.20;;;1.67;;
11893;SDS011;6006;49.696;8.662;2024-02-15T03:52:09;3.23;;;1.30;;
11893;SDS011;6006;49.696;8.662;2024-02-15T03:54:36;2.07;;;1.50;;
11893;SDS011;6006;49.696;8.662;2024-02-15T03:57:03;1.60;;;1.50;;
11893;SDS011;6006;49.696;8.662;2024-02-15T03:59:31;1.43;;;1.33;;
11893;SDS011;6006;49.696;8.662;2024-02-15T04:02:00;2.10;;;1.60;;
11893;SDS011;6006;49.696;8.662;2024-02-15T04:04:28;1.40;;;1.30;;
11893;SDS011;6006;49.696;8.662;2024-02-15T04:06:55;1.50;;;1.40;;
11893;SDS011;6006;49.696;8.662;2024-02-15T04:09:24;1.87;;;1.60;;
11893;SDS011;6006;49.696;8.662;2024-02-15T04:11:51;1.70;;;1.40;;
11893;SDS011;6006;49.696;8.662;2024-02-15T04:14:18;1.70;;;1.33;;
11893;SDS011;6006;49.696;8.662;2024-02-15T04:16:45;2.07;;;1.40;;
11893;SDS011;6006;49.696;8.662;2024-02-15T04:19:12;2.00;;;1.90;;
11893;SDS011;6006;49.696;8.662;2024-02-15T04:21:39;1.50;;;1.40;;
11893;SDS011;6006;49.696;8.662;2024-02-15T04:24:09;1.33;;;1.23;;
11893;SDS011;6006;49.696;8.662;2024-02-15T04:26:38;2.17;;;1.30;;
11893;SDS011;6006;49.696;8.662;2024-02-15T04:29:04;1.63;;;1.53;;
11893;SDS011;6006;49.696;8.662;2024-02-15T04:31:33;1.17;;;1.07;;
11893;SDS011;6006;49.696;8.662;2024-02-15T04:34:04;2.20;;;1.50;;
11893;SDS011;6006;49.696;8.662;2024-02-15T04:36:31;2.47;;;1.50;;
11893;SDS011;6006;49.696;8.662;2024-02-15T04:38:59;2.07;;;1.30;;
11893;SDS011;6006;49.696;8.662;2024-02-15T04:41:27;1.87;;;1.40;;
11893;SDS011;6006;49.696;8.662;2024-02-15T04:43:56;3.73;;;1.50;;
11893;SDS011;6006;49.696;8.662;2024-02-15T04:46:23;1.13;;;1.00;;
11893;SDS011;6006;49.696;8.662;2024-02-15T04:48:50;2.93;;;1.80;;
11893;SDS011;6006;49.696;8.662;2024-02-15T04:51:17;2.33;;;1.43;;
11893;SDS011;6006;49.696;8.662;2024-02-15T04:53:44;1.60;;;1.30;;
11893;SDS011;6006;49.696;8.662;2024-02-15T04:56:19;1.83;;;1.30;;
11893;SDS011;6006;49.696;8.662;2024-02-15T04:58:46;2.97;;;1.50;;
11893;SDS011;6006;49.696;8.662;2024-02-15T05:01:14;1.90;;;1.20;;
11893;SDS011;6006;49.696;8.662;2024-02-15T05:03:42;1.40;;;1.30;;
11893;SDS011;6006;49.696;8.662;2024-02-15T05:06:09;1.50;;;1.40;;
11893;SDS011;6006;49.696;8.662;2024-02-15T05:08:38;2.03;;;1.10;;
11893;SDS011;6006;49.696;8.662;2024-02-15T05:11:07;0.97;;;0.83;;
11893;SDS011;6006;49.696;8.662;2024-02-15T05:13:38;1.27;;;1.17;;
11893;SDS011;6006;49.696;8.662;2024-02-15T05:16:05;2.57;;;1.60;;
11893;SDS011;6006;49.696;8.662;2024-02-15T05:18:33;1.57;;;1.47;;
11893;SDS011;6006;49.696;8.662;2024-02-15T05:21:01;1.43;;;1.33;;
11893;SDS011;6006;49.696;8.662;2024-02-15T05:23:28;1.50;;;1.40;;
11893;SDS011;6006;49.696;8.662;2024-02-15T05:25:55;1.80;;;1.67;;
11893;SDS011;6006;49.696;8.662;2024-02-15T05:28:23;1.60;;;1.50;;
11893;SDS011;6006;49.696;8.662;2024-02-15T05:31:08;2.07;;;1.50;;
11893;SDS011;6006;49.696;8.662;2024-02-15T05:33:38;5.43;;;2.70;;
11893;SDS011;6006;49.696;8.662;2024-02-15T05:36:07;3.33;;;2.80;;
11893;SDS011;6006;49.696;8.662;2024-02-15T05:38:35;5.87;;;2.77;;
11893;SDS011;6006;49.696;8.662;2024-02-15T05:41:02;2.97;;;2.23;;
11893;SDS011;6006;49.696;8.662;2024-02-15T05:43:29;3.77;;;2.87;;
11893;SDS011;6006;49.696;8.662;2024-02-15T05:45:57;3.30;;;2.23;;
11893;SDS011;6006;49.696;8.662;2024-02-15T05:48:25;4.47;;;2.70;;
11893;SDS011;6006;49.696;8.662;2024-02-15T05:50:55;3.70;;;2.57;;
11893;SDS011;6006;49.696;8.662;2024-02-15T05:53:22;3.63;;;2.43;;
11893;SDS011;6006;49.696;8.662;2024-02-15T05:55:49;2.80;;;2.50;;
11893;SDS011;6006;49.696;8.662;2024-02-15T05:58:16;4.20;;;2.53;;
11893;SDS011;6006;49.696;8.662;2024-02-15T06:00:43;2.90;;;2.47;;
11893;SDS011;6006;49.696;8.662;2024-02-15T06:03:15;3.87;;;2.33;;
11893;SDS011;6006;49.696;8.662;2024-02-15T06:05:41;4.47;;;2.80;;
11893;SDS011;6006;49.696;8.662;2024-02-15T06:08:10;5.30;;;2.60;;
11893;SDS011;6006;49.696;8.662;2024-02-15T06:10:38;3.80;;;2.77;;
11893;SDS011;6006;49.696;8.662;2024-02-15T06:13:04;2.70;;;2.50;;
11893;SDS011;6006;49.696;8.662;2024-02-15T06:15:33;6.77;;;2.90;;
11893;SDS011;6006;49.696;8.662;2024-02-15T06:18:01;5.50;;;3.20;;
11893;SDS011;6006;49.696;8.662;2024-02-15T06:20:33;3.07;;;2.67;;
11893;SDS011;6006;49.696;8.662;2024-02-15T06:23:01;3.23;;;2.93;;
11893;SDS011;6006;49.696;8.662;2024-02-15T06:25:31;2.80;;;2.53;;
11893;SDS011;6006;49.696;8.662;2024-02-15T06:27:58;3.93;;;2.90;;
11893;SDS011;6006;49.696;8.662;2024-02-15T06:30:27;2.70;;;2.50;;
11893;SDS011;6006;49.696;8.662;2024-02-15T06:33:12;4.90;;;2.47;;
11893;SDS011;6006;49.696;8.662;2024-02-15T06:35:56;5.97;;;2.83;;
11893;SDS011;6006;49.696;8.662;2024-02-15T06:38:41;3.10;;;2.47;;
11893;SDS011;6006;49.696;8.662;2024-02-15T06:41:26;3.33;;;2.57;;
11893;SDS011;6006;49.696;8.662;2024-02-15T06:43:54;3.27;;;2.97;;
11893;SDS011;6006;49.696;8.662;2024-02-15T06:46:21;4.07;;;3.07;;
11893;SDS011;6006;49.696;8.662;2024-02-15T06:48:48;3.67;;;2.57;;
11893;SDS011;6006;49.696;8.662;2024-02-15T06:51:15;3.87;;;2.73;;
11893;SDS011;6006;49.696;8.662;2024-02-15T06:53:41;2.83;;;2.50;;
11893;SDS011;6006;49.696;8.662;2024-02-15T06:56:09;5.67;;;2.50;;
11893;SDS011;6006;49.696;8.662;2024-02-15T06:58:38;2.27;;;2.03;;
11893;SDS011;6006;49.696;8.662;2024-02-15T07:01:05;4.60;;;2.73;;
11893;SDS011;6006;49.696;8.662;2024-02-15T07:03:32;2.73;;;2.53;;
11893;SDS011;6006;49.696;8.662;2024-02-15T07:05:59;2.50;;;2.30;;
11893;SDS011;6006;49.696;8.662;2024-02-15T07:08:27;4.33;;;3.03;;
11893;SDS011;6006;49.696;8.662;2024-02-15T07:10:54;3.43;;;3.00;;
11893;SDS011;6006;49.696;8.662;2024-02-15T07:13:21;7.40;;;3.00;;
11893;SDS011;6006;49.696;8.662;2024-02-15T07:15:49;6.13;;;2.90;;
11893;SDS011;6006;49.696;8.662;2024-02-15T07:18:17;2.87;;;2.20;;
11893;SDS011;6006;49.696;8.662;2024-02-15T07:20:47;5.63;;;2.77;;
11893;SDS011;6006;49.696;8.662;2024-02-15T07:23:14;5.83;;;3.53;;
11893;SDS011;6006;49.696;8.662;2024-02-15T07:25:41;3.67;;;2.73;;
11893;SDS011;6006;49.696;8.662;2024-02-15T07:28:07;3.43;;;3.00;;
11893;SDS011;6006;49.696;8.662;2024-02-15T07:30:34;5.73;;;3.30;;
11893;SDS011;6006;49.696;8.662;2024-02-15T07:33:03;3.70;;;2.80;;
11893;SDS011;6006;49.696;8.662;2024-02-15T07:35:31;3.57;;;2.80;;
11893;SDS011;6006;49.696;8.662;2024-02-15T07:38:00;3.60;;;2.93;;
11893;SDS011;6006;49.696;8.662;2024-02-15T07:40:27;4.50;;;2.90;;
11893;SDS011;6006;49.696;8.662;2024-02-15T07:42:55;6.83;;;2.87;;
11893;SDS011;6006;49.696;8.662;2024-02-15T07:45:23;5.13;;;2.90;;
11893;SDS011;6006;49.696;8.662;2024-02-15T07:47:50;3.50;;;3.20;;
11893;SDS011;6006;49.696;8.662;2024-02-15T07:50:18;3.80;;;3.00;;
11893;SDS011;6006;49.696;8.662;2024-02-15T07:52:48;3.97;;;3.13;;
11893;SDS011;6006;49.696;8.662;2024-02-15T07:55:16;4.47;;;2.87;;
11893;SDS011;6006;49.696;8.662;2024-02-15T07:57:43;4.10;;;2.60;;
11893;SDS011;6006;49.696;8.662;2024-02-15T08:00:11;5.47;;;3.07;;
11893;SDS011;6006;49.696;8.662;2024-02-15T08:02:41;6.83;;;2.87;;
11893;SDS011;6006;49.696;8.662;2024-02-15T08:05:09;2.43;;;2.23;;
11893;SDS011;6006;49.696;8.662;2024-02-15T08:07:40;3.47;;;2.40;;
11893;SDS011;6006;49.696;8.662;2024-02-15T08:10:09;4.90;;;3.73;;
11893;SDS011;6006;49.696;8.662;2024-02-15T08:12:38;3.43;;;3.07;;
11893;SDS011;6006;49.696;8.662;2024-02-15T08:15:06;3.10;;;2.50;;
11893;SDS011;6006;49.696;8.662;2024-02-15T08:17:37;4.23;;;3.83;;
11893;SDS011;6006;49.696;8.662;2024-02-15T08:20:06;8.57;;;7.73;;
11893;SDS011;6006;49.696;8.662;2024-02-15T08:22:34;4.90;;;4.30;;
11893;SDS011;6006;49.696;8.662;2024-02-15T08:25:05;4.10;;;2.67;;
11893;SDS011;6006;49.696;8.662;2024-02-15T08:27:35;1.50;;;1.40;;
11893;SDS011;6006;49.696;8.662;2024-02-15T08:30:06;1.40;;;1.30;;
11893;SDS011;6006;49.696;8.662;2024-02-15T08:32:35;1.47;;;1.37;;
11893;SDS011;6006;49.696;8.662;2024-02-15T08:35:03;1.67;;;1.57;;
11893;SDS011;6006;49.696;8.662;2024-02-15T08:37:31;1.30;;;1.20;;
11893;SDS011;6006;49.696;8.662;2024-02-15T08:39:59;2.13;;;1.00;;
11893;SDS011;6006;49.696;8.662;2024-02-15T08:42:27;2.20;;;1.30;;
11893;SDS011;6006;49.696;8.662;2024-02-15T08:44:54;1.20;;;1.00;;
11893;SDS011;6006;49.696;8.662;2024-02-15T08:47:21;1.80;;;0.80;;
11893;SDS011;6006;49.696;8.662;2024-02-15T08:49:48;1.17;;;1.10;;
11893;SDS011;6006;49.696;8.662;2024-02-15T08:52:15;1.10;;;1.00;;
11893;SDS011;6006;49.696;8.662;2024-02-15T08:54:43;3.87;;;1.20;;
11893;SDS011;6006;49.696;8.662;2024-02-15T08:57:10;1.20;;;1.10;;
11893;SDS011;6006;49.696;8.662;2024-02-15T08:59:40;1.37;;;1.27;;
11893;SDS011;6006;49.696;8.662;2024-02-15T09:02:07;1.57;;;1.10;;
11893;SDS011;6006;49.696;8.662;2024-02-15T09:04:34;0.83;;;0.83;;
11893;SDS011;6006;49.696;8.662;2024-02-15T09:07:01;1.27;;;0.87;;
11893;SDS011;6006;49.696;8.662;2024-02-15T09:09:29;3.40;;;1.00;;
11893;SDS011;6006;49.696;8.662;2024-02-15T09:11:56;2.73;;;1.33;;
11893;SDS011;6006;49.696;8.662;2024-02-15T09:14:23;2.77;;;1.40;;
11893;SDS011;6006;49.696;8.662;2024-02-15T09:16:52;2.45;;;1.17;;
11893;SDS011;6006;49.696;8.662;2024-02-15T09:19:19;0.98;;;0.90;;
11893;SDS011;6006;49.696;8.662;2024-02-15T09:21:45;2.40;;;1.30;;
11893;SDS011;6006;49.696;8.662;2024-02-15T09:24:12;2.28;;;1.02;;
11893;SDS011;6006;49.696;8.662;2024-02-15T09:26:41;3.45;;;1.20;;
11893;SDS011;6006;49.696;8.662;2024-02-15T09:29:09;2.97;;;0.90;;
11893;SDS011;6006;49.696;8.662;2024-02-15T09:31:37;0.87;;;0.87;;
11893;SDS011;6006;49.696;8.662;2024-02-15T09:34:06;1.75;;;0.90;;
11893;SDS011;6006;49.696;8.662;2024-02-15T09:36:34;0.90;;;0.70;;
11893;SDS011;6006;49.696;8.662;2024-02-15T09:39:03;2.08;;;1.00;;
11893;SDS011;6006;49.696;8.662;2024-02-15T09:41:31;1.38;;;1.00;;
11893;SDS011;6006;49.696;8.662;2024-02-15T09:43:59;0.63;;;0.60;;
11893;SDS011;6006;49.696;8.662;2024-02-15T09:46:26;2.60;;;0.90;;
11893;SDS011;6006;49.696;8.662;2024-02-15T09:48:54;3.15;;;0.80;;
11893;SDS011;6006;49.696;8.662;2024-02-15T09:51:24;0.90;;;0.90;;
11893;SDS011;6006;49.696;8.662;2024-02-15T09:53:52;1.50;;;0.70;;
11893;SDS011;6006;49.696;8.662;2024-02-15T09:56:19;1.25;;;0.85;;
11893;SDS011;6006;49.696;8.662;2024-02-15T09:58:49;0.60;;;0.60;;
11893;SDS011;6006;49.696;8.662;2024-02-15T10:01:17;3.50;;;0.73;;
11893;SDS011;6006;49.696;8.662;2024-02-15T10:03:48;0.50;;;0.50;;
11893;SDS011;6006;49.696;8.662;2024-02-15T10:06:16;1.42;;;0.77;;
11893;SDS011;6006;49.696;8.662;2024-02-15T10:08:45;1.10;;;0.85;;
11893;SDS011;6006;49.696;8.662;2024-02-15T10:11:13;3.13;;;1.00;;
11893;SDS011;6006;49.696;8.662;2024-02-15T10:13:41;0.70;;;0.60;;
11893;SDS011;6006;49.696;8.662;2024-02-15T10:16:16;1.65;;;0.65;;
11893;SDS011;6006;49.696;8.662;2024-02-15T10:18:43;0.77;;;0.55;;
11893;SDS011;6006;49.696;8.662;2024-02-15T10:21:23;1.08;;;0.80;;
11893;SDS011;6006;49.696;8.662;2024-02-15T10:24:03;0.57;;;0.57;;
11893;SDS011;6006;49.696;8.662;2024-02-15T10:26:31;1.35;;;0.52;;
11893;SDS011;6006;49.696;8.662;2024-02-15T10:29:06;1.17;;;0.70;;
11893;SDS011;6006;49.696;8.662;2024-02-15T10:31:37;1.17;;;0.82;;
11893;SDS011;6006;49.696;8.662;2024-02-15T10:34:06;1.35;;;0.82;;
11893;SDS011;6006;49.696;8.662;2024-02-15T10:36:34;1.33;;;0.65;;
11893;SDS011;6006;49.696;8.662;2024-02-15T10:39:12;0.98;;;0.95;;
11893;SDS011;6006;49.696;8.662;2024-02-15T10:41:43;0.95;;;0.65;;
11893;SDS011;6006;49.696;8.662;2024-02-15T10:44:12;2.03;;;0.60;;
11893;SDS011;6006;49.696;8.662;2024-02-15T10:46:41;2.45;;;1.13;;
11893;SDS011;6006;49.696;8.662;2024-02-15T10:49:09;4.03;;;1.63;;
11893;SDS011;6006;49.696;8.662;2024-02-15T10:51:36;2.17;;;0.90;;
11893;SDS011;6006;49.696;8.662;2024-02-15T10:54:07;1.60;;;1.17;;
11893;SDS011;6006;49.696;8.662;2024-02-15T10:56:41;1.42;;;1.20;;
11893;SDS011;6006;49.696;8.662;2024-02-15T10:59:14;1.73;;;1.23;;
11893;SDS011;6006;49.696;8.662;2024-02-15T11:01:44;2.00;;;1.02;;
11893;SDS011;6006;49.696;8.662;2024-02-15T11:04:14;1.50;;;0.90;;
11893;SDS011;6006;49.696;8.662;2024-02-15T11:06:42;3.30;;;0.77;;
11893;SDS011;6006;49.696;8.662;2024-02-15T11:09:10;2.30;;;1.00;;
11893;SDS011;6006;49.696;8.662;2024-02-15T11:11:39;1.85;;;0.93;;
11893;SDS011;6006;49.696;8.662;2024-02-15T11:14:25;1.30;;;0.82;;
11893;SDS011;6006;49.696;8.662;2024-02-15T11:16:53;3.17;;;0.95;;
11893;SDS011;6006;49.696;8.662;2024-02-15T11:19:41;1.90;;;1.00;;
11893;SDS011;6006;49.696;8.662;2024-02-15T11:22:12;1.80;;;1.00;;
11893;SDS011;6006;49.696;8.662;2024-02-15T11:24:50;1.90;;;0.70;;
11893;SDS011;6006;49.696;8.662;2024-02-15T11:27:26;0.85;;;0.70;;
11893;SDS011;6006;49.696;8.662;2024-02-15T11:29:54;1.15;;;0.73;;
11893;SDS011;6006;49.696;8.662;2024-02-15T11:32:42;1.45;;;0.85;;
11893;SDS011;6006;49.696;8.662;2024-02-15T11:35:14;0.75;;;0.70;;
11893;SDS011;6006;49.696;8.662;2024-02-15T11:37:53;0.60;;;0.60;;
11893;SDS011;6006;49.696;8.662;2024-02-15T11:40:29;0.88;;;0.75;;
11893;SDS011;6006;49.696;8.662;2024-02-15T11:46:30;1.48;;;1.00;;
11893;SDS011;6006;49.696;8.662;2024-02-15T11:49:00;2.83;;;0.60;;
11893;SDS011;6006;49.696;8.662;2024-02-15T11:51:29;0.40;;;0.40;;
11893;SDS011;6006;49.696;8.662;2024-02-15T11:54:02;3.22;;;0.80;;
11893;SDS011;6006;49.696;8.662;2024-02-15T11:59:18;0.50;;;0.50;;
11893;SDS011;6006;49.696;8.662;2024-02-15T12:01:54;1.65;;;0.52;;
11893;SDS011;6006;49.696;8.662;2024-02-15T12:04:39;3.13;;;0.60;;
11893;SDS011;6006;49.696;8.662;2024-02-15T12:07:24;0.63;;;0.50;;
11893;SDS011;6006;49.696;8.662;2024-02-15T12:10:14;1.75;;;0.60;;
11893;SDS011;6006;49.696;8.662;2024-02-15T12:13:00;1.85;;;0.60;;
11893;SDS011;6006;49.696;8.662;2024-02-15T12:15:57;2.55;;;0.55;;
11893;SDS011;6006;49.696;8.662;2024-02-15T12:18:42;0.50;;;0.50;;
11893;SDS011;6006;49.696;8.662;2024-02-15T12:21:09;1.35;;;0.80;;
11893;SDS011;6006;49.696;8.662;2024-02-15T12:23:39;1.17;;;0.52;;
11893;SDS011;6006;49.696;8.662;2024-02-15T12:26:07;0.57;;;0.50;;
11893;SDS011;6006;49.696;8.662;2024-02-15T12:28:34;1.33;;;0.80;;
11893;SDS011;6006;49.696;8.662;2024-02-15T12:31:03;0.43;;;0.40;;
11893;SDS011;6006;49.696;8.662;2024-02-15T12:33:32;2.50;;;0.70;;
11893;SDS011;6006;49.696;8.662;2024-02-15T12:36:03;2.00;;;0.90;;
11893;SDS011;6006;49.696;8.662;2024-02-15T12:38:31;1.10;;;0.60;;
11893;SDS011;6006;49.696;8.662;2024-02-15T12:40:59;0.77;;;0.45;;
11893;SDS011;6006;49.696;8.662;2024-02-15T12:43:27;0.95;;;0.50;;
11893;SDS011;6006;49.696;8.662;2024-02-15T12:45:54;1.80;;;0.75;;
11893;SDS011;6006;49.696;8.662;2024-02-15T12:48:23;0.47;;;0.40;;
11893;SDS011;6006;49.696;8.662;2024-02-15T12:50:50;1.55;;;0.30;;
11893;SDS011;6006;49.696;8.662;2024-02-15T12:53:20;1.35;;;0.50;;
11893;SDS011;6006;49.696;8.662;2024-02-15T12:55:52;1.85;;;0.82;;
11893;SDS011;6006;49.696;8.662;2024-02-15T12:58:20;0.80;;;0.60;;
11893;SDS011;6006;49.696;8.662;2024-02-15T13:00:49;1.30;;;0.80;;
11893;SDS011;6006;49.696;8.662;2024-02-15T13:03:20;0.70;;;0.70;;
11893;SDS011;6006;49.696;8.662;2024-02-15T13:05:49;1.83;;;0.60;;
11893;SDS011;6006;49.696;8.662;2024-02-15T13:08:16;1.33;;;0.65;;
11893;SDS011;6006;49.696;8.662;2024-02-15T13:10:44;0.75;;;0.43;;
11893;SDS011;6006;49.696;8.662;2024-02-15T13:13:12;1.85;;;0.73;;
11893;SDS011;6006;49.696;8.662;2024-02-15T13:15:41;2.50;;;0.65;;
11893;SDS011;6006;49.696;8.662;2024-02-15T13:18:09;1.63;;;0.85;;
11893;SDS011;6006;49.696;8.662;2024-02-15T13:20:40;1.52;;;0.90;;
11893;SDS011;6006;49.696;8.662;2024-02-15T13:23:07;2.35;;;1.23;;
11893;SDS011;6006;49.696;8.662;2024-02-15T13:25:40;1.02;;;0.80;;
11893;SDS011;6006;49.696;8.662;2024-02-15T13:28:08;1.33;;;0.95;;
11893;SDS011;6006;49.696;8.662;2024-02-15T13:30:35;1.15;;;0.73;;
11893;SDS011;6006;49.696;8.662;2024-02-15T13:33:03;3.58;;;1.08;;
11893;SDS011;6006;49.696;8.662;2024-02-15T13:35:31;3.63;;;1.00;;
11893;SDS011;6006;49.696;8.662;2024-02-15T13:38:00;3.35;;;0.63;;
11893;SDS011;6006;49.696;8.662;2024-02-15T13:40:28;1.27;;;0.93;;
11893;SDS011;6006;49.696;8.662;2024-02-15T13:42:57;1.27;;;0.93;;
11893;SDS011;6006;49.696;8.662;2024-02-15T13:45:26;0.55;;;0.40;;
11893;SDS011;6006;49.696;8.662;2024-02-15T13:47:57;2.20;;;0.73;;
11893;SDS011;6006;49.696;8.662;2024-02-15T13:50:26;0.60;;;0.60;;
11893;SDS011;6006;49.696;8.662;2024-02-15T13:52:54;0.65;;;0.65;;
11893;SDS011;6006;49.696;8.662;2024-02-15T13:55:24;0.73;;;0.73;;
11893;SDS011;6006;49.696;8.662;2024-02-15T13:57:52;3.15;;;0.80;;
11893;SDS011;6006;49.696;8.662;2024-02-15T14:00:21;1.27;;;0.65;;
11893;SDS011;6006;49.696;8.662;2024-02-15T14:02:48;1.73;;;0.40;;
11893;SDS011;6006;49.696;8.662;2024-02-15T14:05:15;0.52;;;0.43;;
11893;SDS011;6006;49.696;8.662;2024-02-15T14:07:45;0.57;;;0.57;;
11893;SDS011;6006;49.696;8.662;2024-02-15T14:10:14;1.65;;;0.77;;
11893;SDS011;6006;49.696;8.662;2024-02-15T14:12:44;0.47;;;0.47;;
11893;SDS011;6006;49.696;8.662;2024-02-15T14:15:12;0.40;;;0.40;;
11893;SDS011;6006;49.696;8.662;2024-02-15T14:17:39;0.40;;;0.32;;
11893;SDS011;6006;49.696;8.662;2024-02-15T14:20:06;1.38;;;0.50;;
11893;SDS011;6006;49.696;8.662;2024-02-15T14:22:38;0.50;;;0.50;;
11893;SDS011;6006;49.696;8.662;2024-02-15T14:25:05;0.82;;;0.60;;
11893;SDS011;6006;49.696;8.662;2024-02-15T14:27:33;0.82;;;0.68;;
11893;SDS011;6006;49.696;8.662;2024-02-15T14:30:01;2.70;;;0.55;;
11893;SDS011;6006;49.696;8.662;2024-02-15T14:32:45;0.63;;;0.55;;
11893;SDS011;6006;49.696;8.662;2024-02-15T14:35:29;0.85;;;0.40;;
11893;SDS011;6006;49.696;8.662;2024-02-15T14:38:00;0.88;;;0.43;;
11893;SDS011;6006;49.696;8.662;2024-02-15T14:40:30;0.60;;;0.40;;
11893;SDS011;6006;49.696;8.662;2024-02-15T14:42:58;1.73;;;0.40;;
11893;SDS011;6006;49.696;8.662;2024-02-15T14:45:27;0.68;;;0.60;;
11893;SDS011;6006;49.696;8.662;2024-02-15T14:47:54;0.52;;;0.52;;
11893;SDS011;6006;49.696;8.662;2024-02-15T14:50:21;0.28;;;0.28;;
11893;SDS011;6006;49.696;8.662;2024-02-15T14:52:48;2.90;;;0.57;;
11893;SDS011;6006;49.696;8.662;2024-02-15T14:55:17;2.28;;;0.85;;
11893;SDS011;6006;49.696;8.662;2024-02-15T14:57:44;1.73;;;0.50;;
11893;SDS011;6006;49.696;8.662;2024-02-15T15:00:11;1.55;;;0.60;;
11893;SDS011;6006;49.696;8.662;2024-02-15T15:02:43;0.85;;;0.52;;
11893;SDS011;6006;49.696;8.662;2024-02-15T15:05:11;0.85;;;0.43;;
11893;SDS011;6006;49.696;8.662;2024-02-15T15:07:56;0.40;;;0.30;;
11893;SDS011;6006;49.696;8.662;2024-02-15T15:10:40;0.68;;;0.45;;
11893;SDS011;6006;49.696;8.662;2024-02-15T15:13:25;0.90;;;0.38;;
11893;SDS011;6006;49.696;8.662;2024-02-15T15:15:52;1.23;;;1.13;;
11893;SDS011;6006;49.696;8.662;2024-02-15T15:18:20;1.35;;;0.70;;